Clackamas — WDF6614 — position and weather

sailwx.info

Track history (hours):
 
Tides and Currents Weather Stations Pressure Air Temp Water Temp Dewpoint Dewpoint Depression Visibility Wind Speed Wind Dir Waves Ship Positions

Clackamas

Owner: Port o Portland, Portland, OR. More information available from US FCC via Universal Licensing System and Coast Guard Vessel Documentation Center.

Last reported at 2016-Jul-23 08:26 UTC. Time now 2016-Jul-23 09:20 UTC.
Position N 45°34' W 122°43'.

MMSI: 367476049.

Date/timePositionNaut miles runAvg speedWind from/ knotsBaromVisibWave heightAir tempDewpointWater temp
2016-Jul-23 08:26N 45°34' W 122°43'0 0.0
2016-Jul-23 07:33N 45°34' W 122°43'0 0.0
2016-Jul-23 06:23N 45°34' W 122°43'0 0.0
2016-Jul-23 04:24N 45°34' W 122°43'0 0.0
2016-Jul-23 03:29N 45°34' W 122°43'0 0.0
2016-Jul-23 02:32N 45°34' W 122°43'0 0.0
2016-Jul-23 01:29N 45°34' W 122°43'0 0.0
2016-Jul-23 00:33N 45°34' W 122°43'0 0.0
2016-Jul-22 23:33N 45°34' W 122°43'0 0.1
2016-Jul-22 22:33N 45°34' W 122°43'0 0.0
2016-Jul-22 21:33N 45°34' W 122°43'0 0.0
2016-Jul-22 20:34N 45°34' W 122°43'0 0.1
2016-Jul-22 19:32N 45°34' W 122°43'2 1.7
2016-Jul-22 18:33N 45°35' W 122°45'2 1.7
2016-Jul-22 17:33N 45°34' W 122°43'0 0.0
2016-Jul-22 16:33N 45°34' W 122°43'0 0.0
2016-Jul-22 15:33N 45°34' W 122°43'5 5.2
2016-Jul-22 14:33N 45°38' W 122°47'3 0.2
2016-Jul-22 01:17N 45°37' W 122°43'5 6.8
2016-Jul-22 00:34N 45°41' W 122°46'7 7.1
2016-Jul-21 23:34N 45°49' W 122°47'8 7.5
2016-Jul-21 22:33N 45°56' W 122°49'4 4.2
2016-Jul-21 21:33N 45°60' W 122°51'2 2.2
2016-Jul-21 20:33N 45°58' W 122°49'5 4.6
2016-Jul-21 19:34N 45°53' W 122°48'5 4.6
2016-Jul-21 18:33N 45°49' W 122°48'4 4.5
2016-Jul-21 17:34N 45°45' W 122°46'4 4.4
2016-Jul-21 16:34N 45°40' W 122°46'3 3.0
2016-Jul-21 15:33N 45°38' W 122°44'1 0.0
2016-Jul-20 21:33N 45°37' W 122°43'1 0.8
2016-Jul-20 20:33N 45°38' W 122°44'0 0.1
2016-Jul-20 19:33N 45°38' W 122°44'0 0.0
2016-Jul-20 18:33N 45°38' W 122°44'0 0.2
2016-Jul-20 17:34N 45°38' W 122°43'0 0.1
2016-Jul-20 16:33N 45°38' W 122°44'0 0.1
2016-Jul-20 15:33N 45°38' W 122°43'0 0.2
2016-Jul-20 14:33N 45°37' W 122°43'0 0.0
2016-Jul-19 21:22N 45°37' W 122°43'0 0.2
2016-Jul-19 20:34N 45°37' W 122°43'0 0.1
2016-Jul-19 19:33N 45°37' W 122°43'0 0.3
2016-Jul-19 18:33N 45°37' W 122°43'0 0.1
2016-Jul-19 17:34N 45°37' W 122°43'0 0.5
2016-Jul-19 16:33N 45°37' W 122°43'0 0.3
2016-Jul-19 15:33N 45°37' W 122°43'0 0.1
2016-Jul-19 14:33N 45°37' W 122°43'0 0.0
2016-Jul-18 23:08N 45°37' W 122°43'3 5.2
2016-Jul-18 22:33N 45°38' W 122°47'5 5.1
2016-Jul-18 21:33N 45°34' W 122°43'0 0.0
2016-Jul-18 20:33N 45°34' W 122°43'0 0.0
2016-Jul-18 19:33N 45°34' W 122°43'0 0.0
2016-Jul-18 18:33N 45°34' W 122°43'0 0.0
2016-Jul-18 17:33N 45°34' W 122°43'0 0.0
2016-Jul-18 16:33N 45°34' W 122°43'0 0.0
2016-Jul-18 15:33N 45°34' W 122°43'0 0.1
2016-Jul-18 14:33N 45°34' W 122°43'  
2016-Jul-16 02:33N 45°34' W 122°43'0 0.0
2016-Jul-16 01:33N 45°34' W 122°43'0 0.0
2016-Jul-16 00:33N 45°34' W 122°43'2 2.4
2016-Jul-15 23:33N 45°35' W 122°46'0 0.0
2016-Jul-15 22:33N 45°35' W 122°46'0 0.0
2016-Jul-15 21:33N 45°35' W 122°46'2 2.0
2016-Jul-15 20:34N 45°37' W 122°47'3 0.1
2016-Jul-14 21:33N 45°37' W 122°43'0 0.0
2016-Jul-14 20:33N 45°37' W 122°43'0 0.0
2016-Jul-14 19:33N 45°37' W 122°43'0 0.1
2016-Jul-14 18:33N 45°37' W 122°43'0 0.1
2016-Jul-14 17:34N 45°37' W 122°43'0 0.2
2016-Jul-14 16:33N 45°38' W 122°43'0 0.4
2016-Jul-14 15:33N 45°37' W 122°43'0 0.3
2016-Jul-14 14:33N 45°37' W 122°43'0 0.0
2016-Jul-13 22:07N 45°37' W 122°43'1 1.1
2016-Jul-13 21:33N 45°38' W 122°44'0 0.0
2016-Jul-13 20:34N 45°38' W 122°44'1 0.9
2016-Jul-13 19:33N 45°37' W 122°43'1 0.8
2016-Jul-13 18:33N 45°38' W 122°44'0 0.0
2016-Jul-13 17:34N 45°38' W 122°44'0 0.0
2016-Jul-13 16:34N 45°38' W 122°44'1 0.6
2016-Jul-13 15:31N 45°37' W 122°43'0 0.0
2016-Jul-13 14:32N 45°37' W 122°43'  
Track history (hours):
 
Tides and Currents Weather Stations Pressure Air Temp Water Temp Dewpoint Dewpoint Depression Visibility Wind Speed Wind Dir Waves Ship Positions

Clackamas

Owner: Port o Portland, Portland, OR. More information available from US FCC via Universal Licensing System and Coast Guard Vessel Documentation Center.

Last reported at 2016-Jul-23 08:26 UTC. Time now 2016-Jul-23 09:20 UTC.
Position N 45°34' W 122°43'.

MMSI: 367476049.

Date/timePositionNaut miles runAvg speedWind from/ knotsBaromVisibWave heightAir tempDewpointWater temp
2016-Jul-23 08:26N 45°34' W 122°43'0 0.0
2016-Jul-23 07:33N 45°34' W 122°43'0 0.0
2016-Jul-23 06:23N 45°34' W 122°43'0 0.0
2016-Jul-23 04:24N 45°34' W 122°43'0 0.0
2016-Jul-23 03:29N 45°34' W 122°43'0 0.0
2016-Jul-23 02:32N 45°34' W 122°43'0 0.0
2016-Jul-23 01:29N 45°34' W 122°43'0 0.0
2016-Jul-23 00:33N 45°34' W 122°43'0 0.0
2016-Jul-22 23:33N 45°34' W 122°43'0 0.1
2016-Jul-22 22:33N 45°34' W 122°43'0 0.0
2016-Jul-22 21:33N 45°34' W 122°43'0 0.0
2016-Jul-22 20:34N 45°34' W 122°43'0 0.1
2016-Jul-22 19:32N 45°34' W 122°43'2 1.7
2016-Jul-22 18:33N 45°35' W 122°45'2 1.7
2016-Jul-22 17:33N 45°34' W 122°43'0 0.0
2016-Jul-22 16:33N 45°34' W 122°43'0 0.0
2016-Jul-22 15:33N 45°34' W 122°43'5 5.2
2016-Jul-22 14:33N 45°38' W 122°47'3 0.2
2016-Jul-22 01:17N 45°37' W 122°43'5 6.8
2016-Jul-22 00:34N 45°41' W 122°46'7 7.1
2016-Jul-21 23:34N 45°49' W 122°47'8 7.5
2016-Jul-21 22:33N 45°56' W 122°49'4 4.2
2016-Jul-21 21:33N 45°60' W 122°51'2 2.2
2016-Jul-21 20:33N 45°58' W 122°49'5 4.6
2016-Jul-21 19:34N 45°53' W 122°48'5 4.6
2016-Jul-21 18:33N 45°49' W 122°48'4 4.5
2016-Jul-21 17:34N 45°45' W 122°46'4 4.4
2016-Jul-21 16:34N 45°40' W 122°46'3 3.0
2016-Jul-21 15:33N 45°38' W 122°44'1 0.0
2016-Jul-20 21:33N 45°37' W 122°43'1 0.8
2016-Jul-20 20:33N 45°38' W 122°44'0 0.1
2016-Jul-20 19:33N 45°38' W 122°44'0 0.0
2016-Jul-20 18:33N 45°38' W 122°44'0 0.2
2016-Jul-20 17:34N 45°38' W 122°43'0 0.1
2016-Jul-20 16:33N 45°38' W 122°44'0 0.1
2016-Jul-20 15:33N 45°38' W 122°43'0 0.2
2016-Jul-20 14:33N 45°37' W 122°43'0 0.0
2016-Jul-19 21:22N 45°37' W 122°43'0 0.2
2016-Jul-19 20:34N 45°37' W 122°43'0 0.1
2016-Jul-19 19:33N 45°37' W 122°43'0 0.3
2016-Jul-19 18:33N 45°37' W 122°43'0 0.1
2016-Jul-19 17:34N 45°37' W 122°43'0 0.5
2016-Jul-19 16:33N 45°37' W 122°43'0 0.3
2016-Jul-19 15:33N 45°37' W 122°43'0 0.1
2016-Jul-19 14:33N 45°37' W 122°43'0 0.0
2016-Jul-18 23:08N 45°37' W 122°43'3 5.2
2016-Jul-18 22:33N 45°38' W 122°47'5 5.1
2016-Jul-18 21:33N 45°34' W 122°43'0 0.0
2016-Jul-18 20:33N 45°34' W 122°43'0 0.0
2016-Jul-18 19:33N 45°34' W 122°43'0 0.0
2016-Jul-18 18:33N 45°34' W 122°43'0 0.0
2016-Jul-18 17:33N 45°34' W 122°43'0 0.0
2016-Jul-18 16:33N 45°34' W 122°43'0 0.0
2016-Jul-18 15:33N 45°34' W 122°43'0 0.1
2016-Jul-18 14:33N 45°34' W 122°43'  
2016-Jul-16 02:33N 45°34' W 122°43'0 0.0
2016-Jul-16 01:33N 45°34' W 122°43'0 0.0
2016-Jul-16 00:33N 45°34' W 122°43'2 2.4
2016-Jul-15 23:33N 45°35' W 122°46'0 0.0
2016-Jul-15 22:33N 45°35' W 122°46'0 0.0
2016-Jul-15 21:33N 45°35' W 122°46'2 2.0
2016-Jul-15 20:34N 45°37' W 122°47'3 0.1
2016-Jul-14 21:33N 45°37' W 122°43'0 0.0
2016-Jul-14 20:33N 45°37' W 122°43'0 0.0
2016-Jul-14 19:33N 45°37' W 122°43'0 0.1
2016-Jul-14 18:33N 45°37' W 122°43'0 0.1
2016-Jul-14 17:34N 45°37' W 122°43'0 0.2
2016-Jul-14 16:33N 45°38' W 122°43'0 0.4
2016-Jul-14 15:33N 45°37' W 122°43'0 0.3
2016-Jul-14 14:33N 45°37' W 122°43'0 0.0
2016-Jul-13 22:07N 45°37' W 122°43'1 1.1
2016-Jul-13 21:33N 45°38' W 122°44'0 0.0
2016-Jul-13 20:34N 45°38' W 122°44'1 0.9
2016-Jul-13 19:33N 45°37' W 122°43'1 0.8
2016-Jul-13 18:33N 45°38' W 122°44'0 0.0
2016-Jul-13 17:34N 45°38' W 122°44'0 0.0
2016-Jul-13 16:34N 45°38' W 122°44'1 0.6
2016-Jul-13 15:31N 45°37' W 122°43'0 0.0
2016-Jul-13 14:32N 45°37' W 122°43'  

Dump ship's entire track history